Latest Coastal Weather Observations for Burnie Port

IDT60701

Issued at 1:22 pm EDT Tuesday 2 March 2021 (issued every 10 minutes, with the page automatically refreshed every 10 minutes)

About coastal observations | Map of coastal stations | Coastal observations for TAS | Marine services | Other Formats
Station Details ID: 091344 Name: BURNIE NTC AWS Lat: -41.05 Lon: 145.91 Height: 0.0 m
Data from the previous 72 hours. | See also: Recent months for locations in Tasmania
Date/Time
EDT
Wind Sea
Height
m
Swell Vis
km
Cloud Weather Temp
°C
Press
MSL
hPa
Rain since
9am
mm
Dir  Spd
kts
Gust
kts
Height
m
Period
s
Dir
02/01:00pm SSW 13 21 - - - - - - - 14.3 1015.1 -
02/12:32pm SW 15 26 - - - - - - - 13.9 1015.5 -
02/12:30pm SW 13 26 - - - - - - - 14.1 1015.3 -
02/12:00pm SW 13 23 - - - - - - - 14.2 1015.2 -
02/11:30am SW 12 22 - - - - - - - 13.6 1015.2 -
02/11:24am SSW 15 25 - - - - - - - 13.7 1015.2 -
02/11:00am SSW 14 23 - - - - - - - 13.4 1015.1 -
02/10:30am SSW 13 19 - - - - - - - 13.3 1014.8 -
02/10:00am SW 12 20 - - - - - - - 12.8 1014.7 -
02/09:30am SW 19 26 - - - - - - - 12.3 1014.5 -
02/09:09am SW 15 30 - - - - - - - 11.9 1014.0 -
02/09:00am SSW 12 22 - - - - - - - 11.9 1013.9 -
02/08:47am SW 15 25 - - - - - - - 11.7 1014.1 -
02/08:30am SW 13 22 - - - - - - - 11.6 1013.8 -
02/08:00am SSW 6 12 - - - - - - - 11.3 1013.2 -
02/07:30am WSW 7 11 - - - - - - - 10.5 1013.2 -
02/07:00am WSW 9 16 - - - - - - - 10.7 1012.9 -
02/06:30am W 6 14 - - - - - - - 10.4 1012.8 -
02/06:00am W 7 14 - - - - - - - 10.5 1012.7 -
02/05:30am W 6 13 - - - - - - - 10.6 1012.3 -
02/05:00am W 7 12 - - - - - - - 10.7 1012.0 -
02/04:30am WSW 9 17 - - - - - - - 10.9 1011.9 -
02/04:00am WSW 9 14 - - - - - - - 10.9 1011.7 -
02/03:30am W 6 12 - - - - - - - 11.1 1011.6 -
02/03:00am WSW 9 18 - - - - - - - 11.3 1011.4 -
02/02:30am WSW 6 11 - - - - - - - 11.2 1011.2 -
02/02:00am SW 8 13 - - - - - - - 11.3 1011.2 -
02/01:30am WSW 9 17 - - - - - - - 11.4 1011.0 -
02/01:00am SW 10 19 - - - - - - - 11.2 1011.0 -
02/12:30am WSW 11 22 - - - - - - - 11.3 1010.5 -
02/12:00am W 11 21 - - - - - - - 11.3 1010.1 -
 
Date/Time
EDT
Wind Sea
Height
m
Swell Vis
km
Cloud Weather Temp
°C
Press
MSL
hPa
Rain since
9am
mm
Dir  Spd
kts
Gust
kts
Height
m
Period
s
Dir
01/11:30pm W 8 18 - - - - - - - 11.2 1010.6 -
01/11:00pm WSW 6 15 - - - - - - - 11.4 1010.7 -
01/10:30pm WSW 10 17 - - - - - - - 11.6 1010.3 -
01/10:00pm WSW 12 20 - - - - - - - 11.7 1009.8 -
01/09:30pm WSW 13 23 - - - - - - - 11.9 1009.4 -
01/09:00pm WSW 15 26 - - - - - - - 12.0 1009.1 -
01/08:56pm WSW 15 26 - - - - - - - 12.0 1009.0 -
01/08:30pm WSW 12 21 - - - - - - - 11.9 1008.7 -
01/08:00pm WSW 14 23 - - - - - - - 12.3 1008.1 -
01/07:40pm WSW 15 27 - - - - - - - 12.4 1007.7 -
01/07:30pm WSW 12 22 - - - - - - - 12.3 1007.3 -
01/07:00pm WSW 18 30 - - - - - - - 12.6 1007.0 -
01/06:30pm WSW 16 29 - - - - - - - 13.8 1006.3 -
01/06:07pm WSW 16 26 - - - - - - - 14.2 1006.0 -
01/06:00pm WSW 17 26 - - - - - - - 13.8 1006.1 -
01/05:30pm WSW 16 26 - - - - - - - 14.3 1006.0 -
01/05:00pm WSW 17 33 - - - - - - - 15.5 1005.3 -
01/04:30pm WSW 18 34 - - - - - - - 15.5 1005.5 -
01/04:00pm WSW 18 35 - - - - - - - 15.9 1005.7 -
01/03:49pm WSW 20 39 - - - - - - - 15.8 1006.0 -
01/03:30pm WSW 19 29 - - - - - - - 16.2 1005.7 -
01/03:00pm W 19 32 - - - - - - - 17.8 1005.4 -
01/02:37pm W 17 29 - - - - - - - 17.7 1005.3 -
01/02:30pm W 16 26 - - - - - - - 17.6 1005.3 -
01/02:09pm W 15 30 - - - - - - - 17.6 1005.6 -
01/02:00pm W 13 24 - - - - - - - 16.9 1005.5 -
01/01:35pm WNW 15 25 - - - - - - - 19.2 1005.4 -
01/01:30pm WNW 12 22 - - - - - - - 19.5 1005.4 -
01/01:00pm WNW 11 18 - - - - - - - 19.4 1005.8 -
01/12:30pm WNW 9 17 - - - - - - - 19.4 1006.0 -
01/12:00pm W 9 16 - - - - - - - 19.2 1006.6 -
01/11:30am WSW 10 18 - - - - - - - 19.5 1006.8 -
01/11:00am WSW 9 18 - - - - - - - 18.7 1007.0 -
01/10:30am W 6 9 - - - - - - - 17.7 1007.3 -
01/10:00am W 5 7 - - - - - - - 17.1 1007.4 -
01/09:30am WNW 5 7 - - - - - - - 16.8 1007.3 -
01/09:00am WNW 4 9 - - - - - - - 17.3 1007.3 -
01/08:30am WSW 4 7 - - - - - - - 16.6 1007.4 -
01/08:00am WNW 3 5 - - - - - - - 16.1 1007.3 -
01/07:30am W 4 6 - - - - - - - 16.4 1007.4 -
01/07:00am WNW 4 5 - - - - - - - 16.5 1007.3 -
01/06:30am WNW 3 6 - - - - - - - 16.8 1007.4 -
01/06:00am SSW 1 3 - - - - - - - 16.5 1007.3 -
01/05:30am CALM 0 1 - - - - - - - 16.7 1007.4 -
01/05:00am S 2 2 - - - - - - - 16.5 1007.4 -
01/04:30am SSE 3 4 - - - - - - - 16.4 1007.6 -
01/04:00am S 3 4 - - - - - - - 16.4 1007.9 -
01/03:30am SSE 2 3 - - - - - - - 16.8 1008.0 -
01/03:00am SSE 1 3 - - - - - - - 16.7 1008.3 -
01/02:30am SW 1 2 - - - - - - - 17.1 1008.6 -
01/02:00am W 3 5 - - - - - - - 17.2 1009.0 -
01/01:30am W 2 5 - - - - - - - 17.2 1009.0 -
01/01:00am W 3 5 - - - - - - - 16.9 1009.3 -
01/12:30am WNW 3 5 - - - - - - - 17.2 1009.6 -
01/12:00am WNW 3 5 - - - - - - - 17.2 1009.7 -
 
Date/Time
EDT
Wind Sea
Height
m
Swell Vis
km
Cloud Weather Temp
°C
Press
MSL
hPa
Rain since
9am
mm
Dir  Spd
kts
Gust
kts
Height
m
Period
s
Dir
28/11:30pm NW 2 4 - - - - - - - 17.3 1009.9 -
28/11:00pm SSW 3 5 - - - - - - - 17.5 1009.9 -
28/10:30pm NW 3 4 - - - - - - - 17.4 1010.1 -
28/10:00pm WNW 3 5 - - - - - - - 17.6 1010.5 -
28/09:30pm W 3 5 - - - - - - - 17.7 1010.4 -
28/09:00pm W 3 6 - - - - - - - 17.9 1010.5 -
28/08:30pm NW 7 9 - - - - - - - 17.9 1010.4 -
28/08:00pm NW 9 11 - - - - - - - 17.8 1010.4 -
28/07:30pm NW 10 13 - - - - - - - 17.8 1010.2 -
28/07:00pm NW 10 12 - - - - - - - 17.8 1010.3 -
28/06:30pm NW 10 12 - - - - - - - 17.8 1010.3 -
28/06:00pm NNW 10 13 - - - - - - - 17.9 1010.3 -
28/05:30pm NW 11 13 - - - - - - - 17.9 1010.4 -
28/05:00pm NW 11 13 - - - - - - - 18.0 1010.4 -
28/04:30pm NW 11 13 - - - - - - - 17.9 1010.5 -
28/04:00pm NNW 11 14 - - - - - - - 17.9 1010.8 -
28/03:30pm NNW 10 12 - - - - - - - 17.9 1011.0 -
28/03:00pm NNW 10 12 - - - - - - - 17.8 1011.4 -
28/02:30pm NNW 9 11 - - - - - - - 17.8 1011.7 -
28/02:00pm N 8 9 - - - - - - - 17.8 1011.8 -
28/01:30pm NNW 8 10 - - - - - - - 17.8 1012.3 -
28/01:00pm N 7 8 - - - - - - - 17.7 1012.6 -
28/12:30pm N 6 7 - - - - - - - 17.5 1013.0 -
28/12:00pm N 6 7 - - - - - - - 17.3 1013.4 -
28/11:30am N 5 7 - - - - - - - 17.3 1013.7 -
28/11:00am NNW 5 6 - - - - - - - 17.1 1013.7 -
28/10:30am N 4 5 - - - - - - - 17.0 1013.7 -
28/10:00am NNE 4 5 - - - - - - - 17.0 1013.8 -
28/09:30am ENE 2 3 - - - - - - - 17.1 1013.5 -
28/09:00am SSE 2 3 - - - - - - - 17.2 1013.5 -
28/08:30am SSW 5 6 - - - - - - - 16.1 1013.1 -
28/08:00am SSE 5 6 - - - - - - - 15.2 1013.0 -
28/07:30am SSW 2 3 - - - - - - - 15.8 1013.4 -
28/07:00am SSW 3 4 - - - - - - - 15.4 1013.0 -
28/06:30am SSW 4 5 - - - - - - - 15.2 1012.7 -
28/06:00am S 3 4 - - - - - - - 15.4 1012.7 -
28/05:30am S 2 3 - - - - - - - 15.5 1012.6 -
28/05:00am S 2 4 - - - - - - - 15.5 1012.6 -
28/04:30am S 5 7 - - - - - - - 15.5 1012.7 -
28/04:00am SW 2 3 - - - - - - - 16.0 1013.0 -
28/03:30am W 2 3 - - - - - - - 15.9 1013.1 -
28/03:00am E 2 4 - - - - - - - 15.4 1013.3 -
28/02:30am SSW 4 6 - - - - - - - 15.8 1013.5 -
28/02:00am SW 4 7 - - - - - - - 16.0 1013.4 -
28/01:30am WSW 2 5 - - - - - - - 15.9 1013.4 -
28/01:00am W 3 5 - - - - - - - 16.1 1013.2 -
28/12:30am SE 1 2 - - - - - - - 15.8 1013.1 -
28/12:00am SSE 4 5 - - - - - - - 15.9 1013.0 -
 
Date/Time
EDT
Wind Sea
Height
m
Swell Vis
km
Cloud Weather Temp
°C
Press
MSL
hPa
Rain since
9am
mm
Dir  Spd
kts
Gust
kts
Height
m
Period
s
Dir
27/11:30pm W 4 7 - - - - - - - 16.2 1013.1 -
27/11:00pm WNW 5 7 - - - - - - - 16.6 1013.4 -
27/10:30pm WNW 5 8 - - - - - - - 16.7 1013.5 -
27/10:00pm W 5 8 - - - - - - - 16.7 1013.5 -
27/09:30pm WNW 4 6 - - - - - - - 16.9 1013.4 -
27/09:00pm WNW 4 6 - - - - - - - 17.0 1013.3 -
27/08:30pm WNW 2 3 - - - - - - - 17.1 1013.3 -
27/08:00pm SSW 2 5 - - - - - - - 17.1 1013.2 -
27/07:30pm WNW 5 7 - - - - - - - 17.2 1013.2 -
27/07:00pm NW 8 10 - - - - - - - 17.0 1013.1 -
27/06:30pm NW 6 8 - - - - - - - 17.1 1013.1 -
27/06:00pm NW 5 7 - - - - - - - 16.9 1013.0 -
27/05:30pm NNW 7 9 - - - - - - - 16.9 1013.2 -
27/05:00pm NNW 6 7 - - - - - - - 16.8 1013.1 -
27/04:30pm NNW 4 6 - - - - - - - 16.9 1013.2 -
27/04:00pm NW 5 6 - - - - - - - 16.8 1013.4 -
27/03:30pm NW 6 7 - - - - - - - 16.7 1013.7 -
27/03:00pm NNW 6 7 - - - - - - - 16.9 1014.0 -
27/02:30pm NNW 4 6 - - - - - - - 16.8 1014.2 -
27/02:00pm N 2 4 - - - - - - - 16.8 1014.4 -
27/01:30pm NE 2 3 - - - - - - - 16.8 1014.3 -

Other formats

Comma delimited format used in spreadsheet applications
http://www.bom.gov.au/fwo/IDT60701/IDT60701.95963.axf

JavaScript Object Notation format (JSON) in row-major order
http://www.bom.gov.au/fwo/IDT60701/IDT60701.95963.json

Data quality

Most of these data are generated automatically and are frequently updated. Quality checks on data are not normally performed. It is possible for incorrect values to appear. Refer to information at About Latest Weather Observations and please check the disclaimer before using these data.